Time;durP1;ratioP1;P1;durP2;ratioP2;P2;SDS_P1;SDS_P2;PMS_P1;PMS_P2;Temp;Humidity;BMP_temperature;BMP_pressure;BME280_temperature;BME280_humidity;BME280_pressure;Samples;Min_cycle;Max_cycle;Signal;HPM_P1;HPM_P2
2023/08/12 00:01:08;;;;;;;9.95;7.55;;;21.30;99.90;;;;;;5010339;28;20029;-74
2023/08/12 00:03:35;;;;;;;10.52;8.05;;;21.30;99.90;;;;;;4993322;28;20033;-73
2023/08/12 00:06:05;;;;;;;10.77;8.68;;;21.30;99.90;;;;;;5008244;28;20021;-74
2023/08/12 00:08:31;;;;;;;9.90;8.15;;;21.30;99.90;;;;;;5004446;28;20045;-72
2023/08/12 00:10:58;;;;;;;9.85;8.82;;;21.30;99.90;;;;;;4999240;28;20095;-73
2023/08/12 00:13:24;;;;;;;9.90;7.57;;;21.30;99.90;;;;;;5018996;28;20041;-73
2023/08/12 00:15:51;;;;;;;8.88;7.97;;;21.30;99.90;;;;;;4997431;28;20676;-72
2023/08/12 00:18:18;;;;;;;9.13;7.40;;;21.30;99.90;;;;;;5023010;28;20034;-72
2023/08/12 00:20:45;;;;;;;8.88;7.80;;;21.30;99.90;;;;;;5009098;28;20060;-72
2023/08/12 00:23:11;;;;;;;9.57;7.32;;;21.20;99.90;;;;;;4989626;28;20036;-73
2023/08/12 00:25:37;;;;;;;8.63;7.40;;;21.20;99.90;;;;;;5006245;28;20775;-72
2023/08/12 00:28:04;;;;;;;9.15;6.50;;;21.20;99.90;;;;;;5007971;28;20037;-74
2023/08/12 00:30:30;;;;;;;8.30;7.00;;;21.20;99.90;;;;;;5017332;28;20030;-73
2023/08/12 00:32:57;;;;;;;6.90;6.20;;;21.20;99.90;;;;;;5017272;28;20059;-74
2023/08/12 00:35:23;;;;;;;7.13;6.10;;;21.20;99.90;;;;;;5001572;28;20025;-73
2023/08/12 00:37:50;;;;;;;9.63;7.20;;;21.20;99.90;;;;;;4992102;28;20055;-72
2023/08/12 00:40:16;;;;;;;8.00;6.57;;;21.20;99.90;;;;;;4995365;28;21609;-72
2023/08/12 00:42:43;;;;;;;10.23;7.13;;;21.20;99.90;;;;;;4989629;28;20055;-72
2023/08/12 00:45:12;;;;;;;6.97;6.35;;;21.20;99.90;;;;;;4994474;28;20036;-72
2023/08/12 00:47:40;;;;;;;9.07;6.88;;;21.20;99.90;;;;;;4989662;28;20041;-73
2023/08/12 00:50:09;;;;;;;9.88;7.88;;;21.20;99.90;;;;;;4986780;28;20044;-73
2023/08/12 00:52:36;;;;;;;11.10;7.15;;;21.20;99.90;;;;;;5017759;28;20041;-74
2023/08/12 00:55:02;;;;;;;7.38;6.65;;;21.20;99.90;;;;;;5014562;28;20037;-72
2023/08/12 00:57:29;;;;;;;10.27;8.20;;;21.20;99.90;;;;;;4988905;28;20099;-73
2023/08/12 00:59:56;;;;;;;9.90;7.68;;;21.20;99.90;;;;;;4977147;28;20048;-73
2023/08/12 01:02:22;;;;;;;9.20;7.35;;;21.10;99.90;;;;;;5007318;28;20419;-73
2023/08/12 01:04:48;;;;;;;10.18;8.32;;;21.10;99.90;;;;;;5006883;28;20047;-75
2023/08/12 01:07:15;;;;;;;9.25;7.75;;;21.10;99.90;;;;;;5005959;28;21413;-72
2023/08/12 01:09:41;;;;;;;11.00;7.93;;;21.10;99.90;;;;;;5007960;28;20036;-73
2023/08/12 01:12:18;;;;;;;8.23;7.35;;;21.10;99.90;;;;;;4993372;28;20060;-73
2023/08/12 01:14:57;;;;;;;8.98;7.55;;;21.20;99.90;;;;;;5018933;28;20029;-75
2023/08/12 01:17:26;;;;;;;9.50;8.40;;;21.20;99.90;;;;;;4989219;28;20368;-73
2023/08/12 01:19:54;;;;;;;10.60;8.57;;;21.20;99.90;;;;;;5017591;28;20045;-74
2023/08/12 01:22:23;;;;;;;10.13;8.88;;;21.20;99.90;;;;;;5021631;28;20025;-73
2023/08/12 01:24:51;;;;;;;10.95;9.73;;;21.20;99.90;;;;;;4993216;28;20038;-72
2023/08/12 01:27:17;;;;;;;11.50;10.40;;;21.20;99.90;;;;;;4989428;28;20033;-72
2023/08/12 01:29:51;;;;;;;11.30;10.10;;;21.10;99.90;;;;;;5005820;28;20017;-72
2023/08/12 01:32:29;;;;;;;13.00;10.95;;;21.20;99.90;;;;;;5006460;28;20044;-74
2023/08/12 01:35:05;;;;;;;13.13;10.68;;;21.10;99.90;;;;;;5006801;28;20042;-74
2023/08/12 01:37:33;;;;;;;11.48;9.90;;;21.10;99.90;;;;;;5007674;28;20029;-73
2023/08/12 01:40:05;;;;;;;11.57;9.43;;;21.10;99.90;;;;;;5004136;28;20044;-73
2023/08/12 01:42:34;;;;;;;11.45;10.05;;;21.10;99.90;;;;;;5000779;28;20032;-72
2023/08/12 01:45:01;;;;;;;12.40;9.63;;;21.10;99.90;;;;;;5009540;28;20064;-73
2023/08/12 01:47:30;;;;;;;10.52;9.45;;;21.10;99.90;;;;;;5006818;28;20041;-72
2023/08/12 01:49:56;;;;;;;10.65;9.07;;;21.10;99.90;;;;;;5005903;28;20040;-72
2023/08/12 01:52:24;;;;;;;10.63;9.52;;;21.10;99.90;;;;;;5005928;28;20538;-72
2023/08/12 01:54:51;;;;;;;11.82;10.25;;;21.10;99.90;;;;;;5006613;28;20025;-72
2023/08/12 01:57:17;;;;;;;12.82;11.35;;;21.10;99.90;;;;;;5009219;28;20029;-72
2023/08/12 01:59:44;;;;;;;12.05;10.48;;;21.10;99.90;;;;;;5022438;28;20384;-73
2023/08/12 02:02:11;;;;;;;11.43;9.85;;;21.00;99.90;;;;;;5020983;28;20402;-72
2023/08/12 02:04:39;;;;;;;12.40;9.52;;;21.00;99.90;;;;;;5003881;28;20600;-72
2023/08/12 02:07:05;;;;;;;9.98;8.20;;;21.00;99.90;;;;;;5010264;28;20041;-73
2023/08/12 02:09:32;;;;;;;11.63;9.57;;;21.00;99.90;;;;;;4972215;28;20080;-72
2023/08/12 02:11:58;;;;;;;14.63;12.93;;;21.00;99.90;;;;;;4981879;28;20375;-73
2023/08/12 02:14:25;;;;;;;11.25;10.10;;;21.00;99.90;;;;;;4995326;28;20037;-73
2023/08/12 02:16:52;;;;;;;11.82;10.50;;;21.00;99.90;;;;;;4980178;28;20025;-72
2023/08/12 02:19:18;;;;;;;13.90;10.63;;;20.90;99.90;;;;;;5007622;28;20375;-72
2023/08/12 02:21:45;;;;;;;12.05;10.38;;;20.90;99.90;;;;;;5022523;28;20029;-73
2023/08/12 02:24:11;;;;;;;13.23;11.75;;;20.90;99.90;;;;;;5003973;28;20045;-74
2023/08/12 02:26:38;;;;;;;15.38;11.95;;;20.90;99.90;;;;;;4998976;28;20033;-73
2023/08/12 02:29:05;;;;;;;12.00;10.43;;;20.90;99.90;;;;;;4997457;28;20013;-71
2023/08/12 02:31:31;;;;;;;17.15;11.82;;;21.00;99.90;;;;;;5013631;28;20041;-73
2023/08/12 02:33:57;;;;;;;13.30;11.90;;;21.00;99.90;;;;;;5012258;28;20033;-73
2023/08/12 02:36:26;;;;;;;12.77;10.52;;;21.00;99.90;;;;;;5013861;28;20624;-72
2023/08/12 02:38:55;;;;;;;12.75;10.77;;;21.00;99.90;;;;;;5017972;28;20036;-74
2023/08/12 02:41:21;;;;;;;14.13;11.40;;;21.00;99.90;;;;;;5005756;28;20025;-74
2023/08/12 02:43:48;;;;;;;16.33;13.55;;;21.00;99.90;;;;;;5007342;28;20036;-72
2023/08/12 02:46:15;;;;;;;13.50;12.10;;;21.00;99.90;;;;;;5014617;28;20040;-73
2023/08/12 02:48:42;;;;;;;14.75;13.00;;;20.90;99.90;;;;;;4997501;28;20387;-72
2023/08/12 02:51:10;;;;;;;11.65;10.52;;;21.00;99.90;;;;;;4998934;28;20029;-71
2023/08/12 02:53:36;;;;;;;13.98;12.25;;;21.00;99.90;;;;;;5015075;28;20052;-73
2023/08/12 02:56:03;;;;;;;13.20;11.43;;;21.00;99.90;;;;;;5015348;28;20036;-74
2023/08/12 02:58:29;;;;;;;15.30;13.70;;;21.00;99.90;;;;;;5012210;28;20018;-72
2023/08/12 03:00:55;;;;;;;14.77;11.70;;;21.00;99.90;;;;;;5017905;28;20036;-73
2023/08/12 03:03:22;;;;;;;17.65;14.43;;;21.00;99.90;;;;;;5002846;28;20044;-72
2023/08/12 03:05:49;;;;;;;14.25;12.75;;;21.10;99.90;;;;;;5015539;28;20036;-73
2023/08/12 03:08:15;;;;;;;16.48;13.75;;;21.00;99.90;;;;;;4996556;28;20052;-73
2023/08/12 03:10:45;;;;;;;14.50;11.13;;;21.00;99.90;;;;;;5012207;28;20028;-73
2023/08/12 03:13:13;;;;;;;15.82;14.18;;;21.00;99.90;;;;;;4996254;28;20495;-73
2023/08/12 03:15:41;;;;;;;15.07;13.57;;;21.00;99.90;;;;;;5013097;28;20846;-73
2023/08/12 03:18:08;;;;;;;14.43;12.93;;;21.10;99.90;;;;;;5014065;28;20029;-73
2023/08/12 03:20:37;;;;;;;17.35;14.93;;;21.10;99.90;;;;;;4998903;28;20060;-74
2023/08/12 03:23:03;;;;;;;17.77;14.88;;;21.00;99.90;;;;;;5019764;28;20055;-73
2023/08/12 03:25:30;;;;;;;15.38;13.77;;;21.10;99.90;;;;;;5004719;28;20036;-73
2023/08/12 03:27:57;;;;;;;16.88;14.52;;;21.10;99.90;;;;;;4982376;28;20063;-72
2023/08/12 03:30:25;;;;;;;17.55;13.30;;;21.00;99.90;;;;;;4995523;28;20028;-73
2023/08/12 03:32:52;;;;;;;15.48;12.98;;;21.00;99.90;;;;;;4980142;28;20044;-74
2023/08/12 03:35:19;;;;;;;13.65;11.85;;;21.00;99.90;;;;;;4995824;28;20037;-72
2023/08/12 03:37:45;;;;;;;15.93;14.32;;;21.00;99.90;;;;;;4982677;28;20044;-74
2023/08/12 03:40:12;;;;;;;15.38;13.85;;;21.00;99.90;;;;;;5014978;28;20032;-74
2023/08/12 03:42:39;;;;;;;17.15;15.40;;;21.10;99.90;;;;;;4991328;28;20471;-73
2023/08/12 03:45:07;;;;;;;17.67;15.48;;;21.00;99.90;;;;;;5005250;28;20034;-73
2023/08/12 03:47:35;;;;;;;19.30;17.15;;;21.10;99.90;;;;;;5014282;28;20032;-75
2023/08/12 03:50:02;;;;;;;16.98;15.02;;;21.00;99.90;;;;;;4996685;28;20029;-73
2023/08/12 03:52:30;;;;;;;18.33;16.33;;;21.00;99.90;;;;;;5012223;28;20041;-74
2023/08/12 03:54:57;;;;;;;18.20;16.33;;;21.00;99.90;;;;;;5014218;28;20044;-73
2023/08/12 03:57:24;;;;;;;15.23;13.18;;;21.00;99.90;;;;;;5014380;28;20033;-73
2023/08/12 03:59:51;;;;;;;15.25;13.35;;;21.00;99.90;;;;;;5020730;28;20435;-74
2023/08/12 04:02:17;;;;;;;15.05;13.55;;;21.00;99.90;;;;;;5022349;28;20052;-73
2023/08/12 04:04:44;;;;;;;14.32;12.93;;;21.00;99.90;;;;;;5005440;28;20041;-72
2023/08/12 04:07:11;;;;;;;17.50;15.63;;;20.90;99.90;;;;;;4997937;28;20037;-73
2023/08/12 04:09:38;;;;;;;15.90;14.20;;;21.00;99.90;;;;;;4975459;28;20033;-73
2023/08/12 04:12:04;;;;;;;15.13;13.55;;;20.90;99.90;;;;;;5016905;28;20037;-72
2023/08/12 04:14:31;;;;;;;14.65;13.05;;;20.90;99.90;;;;;;4998467;28;20033;-72
2023/08/12 04:16:57;;;;;;;14.15;12.63;;;21.00;99.90;;;;;;5013540;28;20143;-74
2023/08/12 04:19:23;;;;;;;15.27;13.70;;;21.00;99.90;;;;;;5022909;28;20041;-73
2023/08/12 04:21:50;;;;;;;16.05;14.32;;;21.00;99.90;;;;;;5023120;28;20032;-73
2023/08/12 04:24:17;;;;;;;13.98;12.57;;;20.90;99.90;;;;;;5007325;28;20029;-72
2023/08/12 04:26:44;;;;;;;14.48;13.00;;;20.90;99.90;;;;;;4998307;28;20523;-73
2023/08/12 04:29:10;;;;;;;15.75;14.15;;;20.90;99.90;;;;;;4997903;28;20528;-74
2023/08/12 04:31:41;;;;;;;15.88;13.07;;;20.90;99.90;;;;;;5015740;28;20044;-74
2023/08/12 04:34:07;;;;;;;17.02;14.55;;;20.90;99.90;;;;;;4999119;28;20222;-73
2023/08/12 04:36:33;;;;;;;17.00;14.80;;;20.90;99.90;;;;;;4996488;28;20025;-73
2023/08/12 04:39:04;;;;;;;16.92;15.18;;;20.90;99.90;;;;;;4998644;28;20047;-73
2023/08/12 04:41:31;;;;;;;15.55;13.32;;;20.90;99.90;;;;;;5002778;28;20041;-73
2023/08/12 04:43:58;;;;;;;13.73;12.35;;;20.90;99.90;;;;;;5005340;28;20025;-74
2023/08/12 04:46:28;;;;;;;13.18;11.90;;;20.90;99.90;;;;;;4997482;28;22720;-75
2023/08/12 04:48:54;;;;;;;14.63;12.65;;;20.90;99.90;;;;;;4993676;28;20478;-75
2023/08/12 04:51:21;;;;;;;15.48;13.38;;;20.90;99.90;;;;;;5013730;28;20033;-74
2023/08/12 04:53:47;;;;;;;13.13;11.40;;;21.00;99.90;;;;;;4995616;28;20049;-75
2023/08/12 04:56:14;;;;;;;21.63;19.30;;;21.00;99.90;;;;;;5011148;28;20032;-73
2023/08/12 04:58:41;;;;;;;22.67;18.88;;;21.00;99.90;;;;;;5011104;28;20641;-74
2023/08/12 05:01:08;;;;;;;16.38;14.68;;;21.00;99.90;;;;;;5016012;28;20025;-74
2023/08/12 05:03:35;;;;;;;19.70;15.82;;;21.00;99.90;;;;;;5003338;28;20032;-73
2023/08/12 05:06:01;;;;;;;16.30;14.55;;;21.10;99.90;;;;;;5019287;28;20493;-74
2023/08/12 05:08:28;;;;;;;15.25;13.77;;;21.10;99.90;;;;;;4994972;28;20036;-75
2023/08/12 05:10:55;;;;;;;14.52;13.02;;;21.10;99.90;;;;;;4993117;28;20021;-74
2023/08/12 05:13:23;;;;;;;14.48;12.35;;;21.20;99.90;;;;;;5007243;28;20056;-74
2023/08/12 05:15:50;;;;;;;16.35;13.18;;;21.20;99.90;;;;;;4992772;28;20069;-72
2023/08/12 05:18:18;;;;;;;17.50;13.98;;;21.20;99.90;;;;;;4987559;28;20040;-74
2023/08/12 05:20:45;;;;;;;15.90;14.23;;;21.20;99.90;;;;;;4993670;28;20052;-74
2023/08/12 05:23:11;;;;;;;18.80;16.45;;;21.20;99.90;;;;;;5014856;28;20543;-74
2023/08/12 05:25:39;;;;;;;17.10;15.30;;;21.20;99.90;;;;;;5034086;28;20058;-75
2023/08/12 05:28:05;;;;;;;21.73;17.70;;;21.20;99.90;;;;;;5015461;28;21063;-73
2023/08/12 05:30:32;;;;;;;15.35;13.48;;;21.10;99.90;;;;;;5013340;28;20029;-74
2023/08/12 05:32:58;;;;;;;14.70;13.20;;;21.10;99.90;;;;;;5017645;28;20486;-74
2023/08/12 05:35:25;;;;;;;15.68;13.20;;;21.10;99.90;;;;;;5012107;28;20557;-73
2023/08/12 05:37:51;;;;;;;15.07;13.57;;;21.00;99.90;;;;;;4980234;28;20033;-73
2023/08/12 05:40:17;;;;;;;17.70;14.88;;;21.00;99.90;;;;;;4986262;28;20064;-74
2023/08/12 05:42:44;;;;;;;12.38;11.07;;;20.90;99.90;;;;;;5023957;28;20029;-74
2023/08/12 05:45:10;;;;;;;15.13;13.25;;;20.90;99.90;;;;;;5006440;28;20025;-73
2023/08/12 05:47:37;;;;;;;14.93;13.43;;;20.90;99.90;;;;;;5019654;28;20029;-72
2023/08/12 05:50:04;;;;;;;14.23;12.73;;;20.90;99.90;;;;;;5015066;28;20036;-76
2023/08/12 05:52:30;;;;;;;16.73;13.95;;;20.90;99.90;;;;;;5009080;28;20024;-73
2023/08/12 05:54:57;;;;;;;25.52;17.92;;;20.80;99.90;;;;;;5013865;28;20522;-73
2023/08/12 05:57:23;;;;;;;13.82;11.98;;;20.80;99.90;;;;;;4983779;28;20072;-73
2023/08/12 05:59:49;;;;;;;24.13;15.80;;;20.70;99.90;;;;;;5017400;28;20517;-72
2023/08/12 06:02:17;;;;;;;19.05;16.15;;;20.70;99.90;;;;;;5019503;28;20043;-72
2023/08/12 06:04:43;;;;;;;16.85;14.43;;;20.60;99.90;;;;;;5005088;28;20468;-72
2023/08/12 06:07:09;;;;;;;23.58;15.48;;;20.60;99.90;;;;;;5023908;28;20040;-72
2023/08/12 06:09:36;;;;;;;13.85;11.73;;;20.50;99.90;;;;;;4980613;28;20668;-71
2023/08/12 06:12:02;;;;;;;17.75;14.13;;;20.50;99.90;;;;;;5013698;28;20049;-71
2023/08/12 06:14:29;;;;;;;27.48;18.52;;;20.50;99.90;;;;;;4998993;28;20040;-71
2023/08/12 06:16:55;;;;;;;13.45;11.48;;;20.50;99.90;;;;;;4995519;28;20447;-72
2023/08/12 06:19:22;;;;;;;18.17;14.73;;;20.40;99.90;;;;;;5015665;28;20043;-72
2023/08/12 06:21:48;;;;;;;17.75;13.05;;;20.40;99.90;;;;;;5015263;28;20486;-72
2023/08/12 06:24:15;;;;;;;11.15;9.93;;;20.40;99.90;;;;;;4991553;28;20021;-72
2023/08/12 06:26:41;;;;;;;11.68;10.48;;;20.40;99.90;;;;;;5024966;28;20036;-73
2023/08/12 06:29:07;;;;;;;18.02;12.50;;;20.40;99.90;;;;;;5021727;28;20035;-73
2023/08/12 06:31:34;;;;;;;23.80;15.95;;;20.40;99.90;;;;;;5011559;28;20025;-72
2023/08/12 06:34:00;;;;;;;11.85;9.75;;;20.30;99.90;;;;;;5016283;28;20048;-73
2023/08/12 06:36:27;;;;;;;17.30;12.63;;;20.30;99.90;;;;;;4978801;28;20045;-72
2023/08/12 06:38:53;;;;;;;14.98;10.88;;;20.30;99.90;;;;;;5014262;28;20044;-73
2023/08/12 06:41:19;;;;;;;15.02;11.30;;;20.30;99.90;;;;;;5013258;28;20041;-73
2023/08/12 06:43:46;;;;;;;9.20;8.05;;;20.20;99.90;;;;;;5017552;28;20032;-73
2023/08/12 06:46:12;;;;;;;8.00;7.20;;;20.20;99.90;;;;;;5023426;28;20044;-74
2023/08/12 06:48:38;;;;;;;7.85;5.80;;;20.20;99.90;;;;;;5022680;28;20029;-75
2023/08/12 06:51:10;;;;;;;6.90;4.30;;;20.20;99.90;;;;;;5002515;28;20043;-73
2023/08/12 06:53:38;;;;;;;6.23;3.97;;;20.10;99.90;;;;;;5013276;28;20033;-74
2023/08/12 06:56:04;;;;;;;5.32;3.33;;;20.10;99.90;;;;;;5012408;28;20048;-75
2023/08/12 06:58:31;;;;;;;4.90;3.42;;;20.10;99.90;;;;;;4995287;28;20396;-73
2023/08/12 07:00:59;;;;;;;4.47;3.25;;;20.00;99.90;;;;;;5012989;28;20037;-73
2023/08/12 07:03:26;;;;;;;6.80;3.33;;;20.10;99.90;;;;;;5028854;28;20052;-73
2023/08/12 07:05:53;;;;;;;4.35;3.55;;;20.10;99.90;;;;;;5004173;28;20032;-75
2023/08/12 07:08:20;;;;;;;4.03;2.95;;;20.10;99.90;;;;;;5001528;28;20518;-75
2023/08/12 07:10:46;;;;;;;5.10;2.78;;;20.10;99.90;;;;;;5021126;28;20472;-73
2023/08/12 07:13:12;;;;;;;3.95;2.60;;;20.20;99.90;;;;;;4991574;28;20035;-72
2023/08/12 07:15:39;;;;;;;4.00;3.03;;;20.20;99.90;;;;;;4980999;28;20036;-73
2023/08/12 07:18:05;;;;;;;4.90;3.20;;;20.20;99.90;;;;;;5012771;28;20028;-74
2023/08/12 07:20:32;;;;;;;4.63;3.00;;;20.30;99.90;;;;;;4995738;28;20484;-72
2023/08/12 07:22:59;;;;;;;3.63;3.05;;;20.30;99.90;;;;;;5013328;28;20751;-73
2023/08/12 07:25:25;;;;;;;6.40;4.07;;;20.40;99.90;;;;;;5016287;28;20033;-74
2023/08/12 07:27:52;;;;;;;7.90;4.07;;;20.40;99.90;;;;;;4984086;28;20033;-73
2023/08/12 07:30:18;;;;;;;5.40;4.47;;;20.40;99.90;;;;;;5023281;28;20498;-74
2023/08/12 07:32:44;;;;;;;6.40;4.88;;;20.40;99.90;;;;;;5015686;28;20039;-73
2023/08/12 07:35:11;;;;;;;7.15;5.00;;;20.40;99.90;;;;;;5010218;28;20265;-73
2023/08/12 07:37:38;;;;;;;6.07;5.13;;;20.40;99.90;;;;;;4992250;28;20446;-75
2023/08/12 07:40:05;;;;;;;6.88;4.65;;;20.40;99.90;;;;;;4980803;28;20040;-74
2023/08/12 07:42:31;;;;;;;6.85;6.15;;;20.40;99.90;;;;;;5008038;28;20048;-73
2023/08/12 07:44:58;;;;;;;7.03;5.00;;;20.40;99.90;;;;;;5010117;28;20048;-73
2023/08/12 07:47:24;;;;;;;7.43;5.93;;;20.40;99.90;;;;;;5015970;28;20052;-74
2023/08/12 07:49:50;;;;;;;8.05;6.20;;;20.40;99.90;;;;;;5022920;28;20037;-76
2023/08/12 07:52:17;;;;;;;7.88;5.53;;;20.40;99.90;;;;;;5022206;28;20036;-72
2023/08/12 07:54:43;;;;;;;8.45;6.32;;;20.40;99.90;;;;;;5008950;28;20189;-71
2023/08/12 07:57:10;;;;;;;7.13;5.70;;;20.40;99.90;;;;;;5011719;28;20518;-73
2023/08/12 07:59:36;;;;;;;7.40;6.70;;;20.40;99.90;;;;;;4979636;28;20044;-74
2023/08/12 08:02:03;;;;;;;7.03;6.15;;;20.30;99.90;;;;;;5010123;28;20604;-74
2023/08/12 08:04:29;;;;;;;9.00;6.72;;;20.30;99.90;;;;;;5003843;28;20055;-74
2023/08/12 08:06:55;;;;;;;5.72;5.10;;;20.30;99.90;;;;;;5016872;28;20044;-75
2023/08/12 08:09:22;;;;;;;5.38;4.22;;;20.20;99.90;;;;;;5022756;28;20025;-75
2023/08/12 08:11:48;;;;;;;3.55;3.08;;;20.20;99.90;;;;;;5019142;28;20024;-75
2023/08/12 08:14:15;;;;;;;5.28;3.45;;;20.20;99.90;;;;;;5026656;28;20038;-73
2023/08/12 08:16:42;;;;;;;4.10;3.38;;;20.20;99.90;;;;;;5012587;28;20388;-74
2023/08/12 08:19:09;;;;;;;4.78;3.33;;;20.20;99.90;;;;;;4979607;28;20034;-73
2023/08/12 08:21:36;;;;;;;3.05;2.75;;;20.20;99.90;;;;;;4994090;28;20175;-72
2023/08/12 08:24:03;;;;;;;3.85;3.28;;;20.20;99.90;;;;;;5011365;28;21385;-75
2023/08/12 08:26:30;;;;;;;3.28;2.97;;;20.20;99.90;;;;;;4994137;28;20041;-75
2023/08/12 08:28:56;;;;;;;3.80;2.55;;;20.20;99.90;;;;;;5002477;28;20033;-74
2023/08/12 08:31:23;;;;;;;3.20;2.25;;;20.20;99.90;;;;;;5021946;28;20114;-73
2023/08/12 08:33:49;;;;;;;3.85;3.40;;;20.30;99.90;;;;;;5010314;28;20021;-75
2023/08/12 08:36:16;;;;;;;4.32;3.30;;;20.40;99.90;;;;;;4987711;28;20037;-73
2023/08/12 08:38:43;;;;;;;4.45;3.22;;;20.40;99.90;;;;;;5011304;28;20037;-74
2023/08/12 08:41:10;;;;;;;3.50;3.20;;;20.40;99.90;;;;;;4977640;28;20037;-74
2023/08/12 08:43:39;;;;;;;4.40;4.00;;;20.40;99.90;;;;;;5011707;28;20064;-75
2023/08/12 08:46:07;;;;;;;8.52;7.45;;;20.50;99.90;;;;;;5009741;28;20394;-75
2023/08/12 08:48:33;;;;;;;7.13;6.43;;;20.50;99.90;;;;;;5019661;28;20051;-74
2023/08/12 08:51:01;;;;;;;6.15;5.10;;;20.60;99.90;;;;;;5018969;28;20037;-74
2023/08/12 08:53:27;;;;;;;5.38;4.30;;;20.70;99.90;;;;;;4994150;28;20502;-74
2023/08/12 08:55:55;;;;;;;6.13;5.30;;;20.70;99.90;;;;;;5010569;28;20815;-76
2023/08/12 08:58:21;;;;;;;8.88;8.00;;;20.70;99.90;;;;;;5008159;28;20036;-74
2023/08/12 09:00:48;;;;;;;6.10;5.47;;;20.70;99.90;;;;;;5011443;28;20033;-71
2023/08/12 09:03:15;;;;;;;6.57;5.95;;;20.80;99.90;;;;;;5009887;28;20041;-71
2023/08/12 09:05:42;;;;;;;5.43;4.93;;;20.80;99.90;;;;;;5017254;28;20374;-73
2023/08/12 09:08:10;;;;;;;3.80;3.50;;;20.90;99.90;;;;;;5023816;28;20414;-72
2023/08/12 09:10:40;;;;;;;3.58;2.97;;;20.90;99.90;;;;;;5023280;28;20033;-71
2023/08/12 09:13:08;;;;;;;2.50;2.30;;;20.90;99.90;;;;;;5020955;28;20033;-70
2023/08/12 09:15:35;;;;;;;4.38;2.85;;;20.90;99.90;;;;;;5013227;28;20048;-71
2023/08/12 09:18:01;;;;;;;3.25;3.00;;;20.90;99.90;;;;;;5016062;28;20047;-71
2023/08/12 09:20:27;;;;;;;3.15;2.95;;;20.90;99.90;;;;;;5014546;28;20068;-71
2023/08/12 09:22:58;;;;;;;4.72;4.32;;;20.90;99.90;;;;;;5000473;28;20037;-72
2023/08/12 09:25:26;;;;;;;3.42;3.13;;;21.00;99.90;;;;;;5015191;28;20036;-71
2023/08/12 09:28:01;;;;;;;2.88;2.67;;;21.10;99.90;;;;;;5020414;28;20036;-74
2023/08/12 09:30:31;;;;;;;2.45;2.22;;;21.10;99.90;;;;;;5004598;28;20040;-74
2023/08/12 09:33:00;;;;;;;3.50;3.20;;;21.10;99.90;;;;;;5020262;28;20047;-72
2023/08/12 09:35:36;;;;;;;2.95;2.75;;;21.10;99.90;;;;;;5014767;28;20043;-72
2023/08/12 09:38:04;;;;;;;3.08;1.88;;;21.20;99.90;;;;;;4997787;28;20427;-72
2023/08/12 09:40:35;;;;;;;2.10;1.83;;;21.30;99.90;;;;;;4998475;28;20036;-72
2023/08/12 09:43:02;;;;;;;1.50;1.30;;;21.40;99.90;;;;;;5015723;28;20538;-73
2023/08/12 09:45:30;;;;;;;1.20;0.77;;;21.50;99.90;;;;;;5013678;28;20379;-72
2023/08/12 09:47:57;;;;;;;1.23;0.70;;;21.70;99.90;;;;;;5017538;28;20372;-74
2023/08/12 09:50:27;;;;;;;0.98;0.50;;;21.80;99.90;;;;;;5018601;28;20032;-72
2023/08/12 09:52:55;;;;;;;0.90;0.50;;;21.90;99.90;;;;;;5021958;28;20372;-73
2023/08/12 09:55:24;;;;;;;0.95;0.50;;;22.00;99.90;;;;;;5013543;28;20037;-72
2023/08/12 09:57:54;;;;;;;0.40;0.40;;;22.20;99.90;;;;;;5009962;28;20041;-73
2023/08/12 10:00:22;;;;;;;0.50;0.40;;;22.50;99.90;;;;;;5027899;28;20067;-73
2023/08/12 10:02:53;;;;;;;0.60;0.40;;;22.50;99.90;;;;;;5009341;28;20028;-73
2023/08/12 10:05:25;;;;;;;1.58;0.40;;;22.50;99.90;;;;;;5012775;28;20041;-72
2023/08/12 10:07:53;;;;;;;0.50;0.40;;;22.50;99.90;;;;;;5010915;28;20037;-72
2023/08/12 10:10:22;;;;;;;0.40;0.40;;;22.50;99.90;;;;;;5005056;28;20028;-73
2023/08/12 10:12:49;;;;;;;0.52;0.40;;;22.40;99.90;;;;;;5022253;28;20438;-74
2023/08/12 10:15:16;;;;;;;0.60;0.50;;;22.40;99.90;;;;;;5012214;28;20478;-73
2023/08/12 10:17:44;;;;;;;0.70;0.60;;;22.60;99.90;;;;;;4976298;28;20486;-72
2023/08/12 10:20:22;;;;;;;1.52;0.50;;;22.90;99.90;;;;;;5010854;28;20462;-73
2023/08/12 10:22:49;;;;;;;0.50;0.40;;;23.30;99.90;;;;;;5009785;28;20041;-72
2023/08/12 10:25:23;;;;;;;0.60;0.50;;;23.50;99.90;;;;;;5010779;28;20036;-73
2023/08/12 10:27:50;;;;;;;0.57;0.43;;;23.60;99.90;;;;;;4990905;28;20025;-73
2023/08/12 10:30:16;;;;;;;0.55;0.35;;;23.60;99.90;;;;;;5018437;28;20037;-73
2023/08/12 10:32:43;;;;;;;0.50;0.30;;;23.60;99.90;;;;;;4984901;28;20033;-73
2023/08/12 10:35:10;;;;;;;0.43;0.40;;;23.50;99.90;;;;;;4992920;28;20041;-73
2023/08/12 10:37:37;;;;;;;0.30;0.30;;;23.20;99.90;;;;;;5010524;28;20514;-73
2023/08/12 10:40:20;;;;;;;0.40;0.30;;;22.90;99.90;;;;;;5012398;28;20436;-73
2023/08/12 10:42:48;;;;;;;0.43;0.30;;;22.90;99.90;;;;;;5008685;28;20041;-73
2023/08/12 10:45:16;;;;;;;2.35;0.60;;;22.90;99.90;;;;;;5010382;28;20036;-73
2023/08/12 10:48:00;;;;;;;1.33;0.90;;;22.70;99.90;;;;;;5009462;28;20036;-73
2023/08/12 10:50:26;;;;;;;1.13;0.70;;;22.60;99.90;;;;;;5022355;28;20395;-73
2023/08/12 10:52:54;;;;;;;1.10;0.80;;;22.30;99.90;;;;;;5020168;28;20025;-73
2023/08/12 10:55:27;;;;;;;2.20;1.10;;;22.20;99.90;;;;;;4982994;28;20040;-73
2023/08/12 10:57:57;;;;;;;1.77;0.95;;;22.30;99.90;;;;;;4993358;28;20045;-73
2023/08/12 11:00:26;;;;;;;2.35;0.85;;;22.40;99.90;;;;;;5009524;28;20044;-73
2023/08/12 11:02:54;;;;;;;1.20;0.60;;;22.80;99.90;;;;;;5013473;28;20029;-73
2023/08/12 11:05:21;;;;;;;1.63;0.60;;;23.20;99.90;;;;;;5013168;28;20032;-74
2023/08/12 11:08:05;;;;;;;2.08;0.82;;;23.60;99.90;;;;;;5008692;28;20030;-73
2023/08/12 11:10:33;;;;;;;1.75;0.60;;;24.00;99.90;;;;;;5021409;28;20480;-74
2023/08/12 11:13:00;;;;;;;1.77;0.60;;;24.50;99.90;;;;;;5020726;28;20040;-74
2023/08/12 11:15:30;;;;;;;1.77;0.50;;;24.80;99.90;;;;;;4998863;28;20037;-73
2023/08/12 11:17:57;;;;;;;2.28;0.50;;;24.90;99.90;;;;;;5010752;28;20037;-73
2023/08/12 11:20:24;;;;;;;1.42;0.55;;;25.10;99.90;;;;;;4978637;28;20043;-74
2023/08/12 11:22:52;;;;;;;1.40;0.77;;;25.30;99.90;;;;;;4994487;28;20041;-76
2023/08/12 11:25:19;;;;;;;1.80;0.80;;;25.40;99.90;;;;;;4998567;28;20408;-75
2023/08/12 11:27:47;;;;;;;2.13;1.00;;;25.40;99.90;;;;;;4980918;28;20036;-75
2023/08/12 11:30:18;;;;;;;2.03;0.60;;;25.60;99.90;;;;;;4999295;28;20040;-75
2023/08/12 11:32:47;;;;;;;2.65;0.75;;;26.00;99.90;;;;;;5023177;28;20039;-74
2023/08/12 11:35:15;;;;;;;2.20;0.50;;;26.40;99.90;;;;;;5017524;28;20033;-73
2023/08/12 11:37:47;;;;;;;1.80;0.50;;;26.80;99.90;;;;;;5009953;28;20033;-73
2023/08/12 11:40:16;;;;;;;2.80;0.47;;;27.30;99.90;;;;;;4993566;28;20043;-74
2023/08/12 11:42:44;;;;;;;3.15;0.50;;;27.50;99.90;;;;;;5012822;28;20033;-74
2023/08/12 11:45:11;;;;;;;3.45;0.40;;;27.80;99.90;;;;;;4995625;28;20044;-73
2023/08/12 11:47:40;;;;;;;2.88;0.80;;;28.10;99.90;;;;;;5011413;28;20503;-73
2023/08/12 11:50:08;;;;;;;2.00;0.63;;;28.50;99.90;;;;;;4995925;28;20042;-73
2023/08/12 11:52:36;;;;;;;2.90;0.50;;;28.70;99.90;;;;;;5020431;28;20037;-73
2023/08/12 11:55:03;;;;;;;1.65;0.52;;;28.60;99.90;;;;;;5019598;28;20044;-74
2023/08/12 11:57:29;;;;;;;1.80;0.63;;;28.50;99.90;;;;;;4992511;28;20040;-74
2023/08/12 12:00:00;;;;;;;3.90;1.02;;;28.60;99.90;;;;;;4992296;28;20042;-75
2023/08/12 12:02:27;;;;;;;4.05;0.98;;;29.00;99.90;;;;;;4993442;28;20962;-75
2023/08/12 12:04:53;;;;;;;2.63;0.80;;;29.40;99.90;;;;;;5007546;28;20041;-75
2023/08/12 12:07:25;;;;;;;1.70;0.55;;;29.80;99.90;;;;;;4974745;28;20384;-74
2023/08/12 12:09:55;;;;;;;2.67;0.68;;;30.00;99.90;;;;;;5014025;28;20510;-76
2023/08/12 12:12:25;;;;;;;2.97;0.60;;;30.70;99.90;;;;;;5019392;28;20226;-80
2023/08/12 12:14:55;;;;;;;2.38;0.60;;;31.30;99.90;;;;;;5019949;28;20033;-84
2023/08/12 12:17:23;;;;;;;2.08;0.60;;;32.00;99.90;;;;;;5014823;28;20044;-84
2023/08/12 12:19:57;;;;;;;2.67;0.70;;;32.00;99.90;;;;;;4993968;28;20049;-83
2023/08/12 12:22:33;;;;;;;1.63;0.50;;;31.80;99.90;;;;;;4971730;28;22067;-77
2023/08/12 12:25:01;;;;;;;2.00;0.75;;;31.30;99.90;;;;;;4993017;28;20041;-82
2023/08/12 12:27:30;;;;;;;3.28;0.80;;;31.20;99.90;;;;;;4974047;28;20063;-76
2023/08/12 12:29:56;;;;;;;2.92;0.77;;;31.30;99.90;;;;;;5006068;28;20087;-75
2023/08/12 12:32:23;;;;;;;4.20;0.80;;;31.30;99.90;;;;;;5018324;28;20033;-76
2023/08/12 12:34:51;;;;;;;3.65;0.65;;;31.50;99.90;;;;;;5019965;28;20365;-78
2023/08/12 12:37:17;;;;;;;2.70;0.90;;;31.50;99.90;;;;;;4991768;28;20123;-80
2023/08/12 12:39:43;;;;;;;3.13;0.80;;;31.50;99.90;;;;;;4975376;28;20032;-79